sensor_id;sensor_type;location;lat;lon;timestamp;temperature;humidity
8914;DHT22;4492;48.736;9.092;2023-02-03T00:01:10;4.00;99.90
8914;DHT22;4492;48.736;9.092;2023-02-03T00:03:36;4.00;99.90
8914;DHT22;4492;48.736;9.092;2023-02-03T00:06:02;4.00;99.90
8914;DHT22;4492;48.736;9.092;2023-02-03T00:08:29;4.00;99.90
8914;DHT22;4492;48.736;9.092;2023-02-03T00:10:54;4.00;99.90
8914;DHT22;4492;48.736;9.092;2023-02-03T00:13:21;4.00;99.90
8914;DHT22;4492;48.736;9.092;2023-02-03T00:15:47;4.00;99.90
8914;DHT22;4492;48.736;9.092;2023-02-03T00:18:12;4.00;99.90
8914;DHT22;4492;48.736;9.092;2023-02-03T00:20:38;4.00;99.90
8914;DHT22;4492;48.736;9.092;2023-02-03T00:23:04;4.00;99.90
8914;DHT22;4492;48.736;9.092;2023-02-03T00:25:30;4.00;99.90
8914;DHT22;4492;48.736;9.092;2023-02-03T00:27:56;4.00;99.90
8914;DHT22;4492;48.736;9.092;2023-02-03T00:30:22;4.00;99.90
8914;DHT22;4492;48.736;9.092;2023-02-03T00:32:47;4.00;99.90
8914;DHT22;4492;48.736;9.092;2023-02-03T00:35:13;4.00;99.90
8914;DHT22;4492;48.736;9.092;2023-02-03T00:37:38;4.00;99.90
8914;DHT22;4492;48.736;9.092;2023-02-03T00:40:04;3.90;99.90
8914;DHT22;4492;48.736;9.092;2023-02-03T00:42:30;3.90;99.90
8914;DHT22;4492;48.736;9.092;2023-02-03T00:44:55;3.90;99.90
8914;DHT22;4492;48.736;9.092;2023-02-03T00:47:21;3.90;99.90
8914;DHT22;4492;48.736;9.092;2023-02-03T00:49:46;3.90;99.90
8914;DHT22;4492;48.736;9.092;2023-02-03T00:52:12;3.90;99.90
8914;DHT22;4492;48.736;9.092;2023-02-03T00:54:37;3.90;99.90
8914;DHT22;4492;48.736;9.092;2023-02-03T00:57:03;3.90;99.90
8914;DHT22;4492;48.736;9.092;2023-02-03T00:59:28;3.90;99.90
8914;DHT22;4492;48.736;9.092;2023-02-03T01:01:54;3.90;99.90
8914;DHT22;4492;48.736;9.092;2023-02-03T01:04:20;3.90;99.90
8914;DHT22;4492;48.736;9.092;2023-02-03T01:06:45;3.90;99.90
8914;DHT22;4492;48.736;9.092;2023-02-03T01:09:11;3.90;99.90
8914;DHT22;4492;48.736;9.092;2023-02-03T01:11:36;3.90;99.90
8914;DHT22;4492;48.736;9.092;2023-02-03T01:14:02;3.90;99.90
8914;DHT22;4492;48.736;9.092;2023-02-03T01:16:29;3.90;99.90
8914;DHT22;4492;48.736;9.092;2023-02-03T01:18:55;3.90;99.90
8914;DHT22;4492;48.736;9.092;2023-02-03T01:21:23;3.90;99.90
8914;DHT22;4492;48.736;9.092;2023-02-03T01:23:49;3.80;99.90
8914;DHT22;4492;48.736;9.092;2023-02-03T01:26:17;3.80;99.90
8914;DHT22;4492;48.736;9.092;2023-02-03T01:28:48;3.80;99.90
8914;DHT22;4492;48.736;9.092;2023-02-03T01:31:17;3.80;99.90
8914;DHT22;4492;48.736;9.092;2023-02-03T01:33:44;3.80;99.90
8914;DHT22;4492;48.736;9.092;2023-02-03T01:36:14;3.90;99.90
8914;DHT22;4492;48.736;9.092;2023-02-03T01:38:40;3.80;99.90
8914;DHT22;4492;48.736;9.092;2023-02-03T01:41:09;3.80;99.90
8914;DHT22;4492;48.736;9.092;2023-02-03T01:43:39;3.80;99.90
8914;DHT22;4492;48.736;9.092;2023-02-03T01:46:34;3.80;99.90
8914;DHT22;4492;48.736;9.092;2023-02-03T01:49:09;3.80;99.90
8914;DHT22;4492;48.736;9.092;2023-02-03T01:51:38;3.80;99.90
8914;DHT22;4492;48.736;9.092;2023-02-03T01:54:07;3.80;99.90
8914;DHT22;4492;48.736;9.092;2023-02-03T01:56:35;3.80;99.90
8914;DHT22;4492;48.736;9.092;2023-02-03T01:59:04;3.80;99.90
8914;DHT22;4492;48.736;9.092;2023-02-03T02:01:31;3.80;99.90
8914;DHT22;4492;48.736;9.092;2023-02-03T02:03:59;3.80;99.90
8914;DHT22;4492;48.736;9.092;2023-02-03T02:06:26;3.80;99.90
8914;DHT22;4492;48.736;9.092;2023-02-03T02:08:52;3.80;99.90
8914;DHT22;4492;48.736;9.092;2023-02-03T02:11:19;3.80;99.90
8914;DHT22;4492;48.736;9.092;2023-02-03T02:13:46;3.80;99.90
8914;DHT22;4492;48.736;9.092;2023-02-03T02:22:05;3.90;99.90
8914;DHT22;4492;48.736;9.092;2023-02-03T02:41:22;4.00;99.90
8914;DHT22;4492;48.736;9.092;2023-02-03T02:44:13;4.00;99.90
8914;DHT22;4492;48.736;9.092;2023-02-03T02:46:49;3.90;99.90
8914;DHT22;4492;48.736;9.092;2023-02-03T02:49:30;3.90;99.90
8914;DHT22;4492;48.736;9.092;2023-02-03T02:52:00;3.80;99.90
8914;DHT22;4492;48.736;9.092;2023-02-03T02:54:27;3.80;99.90
8914;DHT22;4492;48.736;9.092;2023-02-03T02:56:56;3.80;99.90
8914;DHT22;4492;48.736;9.092;2023-02-03T02:59:23;3.80;99.90
8914;DHT22;4492;48.736;9.092;2023-02-03T03:01:49;3.80;99.90
8914;DHT22;4492;48.736;9.092;2023-02-03T03:04:18;3.80;99.90
8914;DHT22;4492;48.736;9.092;2023-02-03T03:07:07;3.90;99.90
8914;DHT22;4492;48.736;9.092;2023-02-03T03:09:40;3.90;99.90
8914;DHT22;4492;48.736;9.092;2023-02-03T03:12:19;3.90;99.90
8914;DHT22;4492;48.736;9.092;2023-02-03T03:14:51;3.90;99.90
8914;DHT22;4492;48.736;9.092;2023-02-03T03:17:29;3.90;99.90
8914;DHT22;4492;48.736;9.092;2023-02-03T03:20:01;3.90;99.90
8914;DHT22;4492;48.736;9.092;2023-02-03T03:22:33;3.90;99.90
8914;DHT22;4492;48.736;9.092;2023-02-03T03:25:10;3.90;99.90
8914;DHT22;4492;48.736;9.092;2023-02-03T03:27:39;4.00;99.90
8914;DHT22;4492;48.736;9.092;2023-02-03T03:30:09;4.00;99.90
8914;DHT22;4492;48.736;9.092;2023-02-03T03:32:36;4.00;99.90
8914;DHT22;4492;48.736;9.092;2023-02-03T03:35:03;4.00;99.90
8914;DHT22;4492;48.736;9.092;2023-02-03T03:37:43;4.00;99.90
8914;DHT22;4492;48.736;9.092;2023-02-03T03:42:53;4.00;99.90
8914;DHT22;4492;48.736;9.092;2023-02-03T03:47:52;4.00;99.90
8914;DHT22;4492;48.736;9.092;2023-02-03T03:50:24;4.00;99.90
8914;DHT22;4492;48.736;9.092;2023-02-03T03:52:52;4.00;99.90
8914;DHT22;4492;48.736;9.092;2023-02-03T03:55:19;4.00;99.90
8914;DHT22;4492;48.736;9.092;2023-02-03T03:57:52;4.00;99.90
8914;DHT22;4492;48.736;9.092;2023-02-03T04:00:20;4.00;99.90
8914;DHT22;4492;48.736;9.092;2023-02-03T04:02:51;4.00;99.90
8914;DHT22;4492;48.736;9.092;2023-02-03T04:05:18;4.00;99.90
8914;DHT22;4492;48.736;9.092;2023-02-03T04:07:46;4.00;99.90
8914;DHT22;4492;48.736;9.092;2023-02-03T04:10:22;4.00;99.90
8914;DHT22;4492;48.736;9.092;2023-02-03T04:12:49;4.00;99.90
8914;DHT22;4492;48.736;9.092;2023-02-03T04:15:15;4.10;99.90
8914;DHT22;4492;48.736;9.092;2023-02-03T04:17:40;4.10;99.90
8914;DHT22;4492;48.736;9.092;2023-02-03T04:20:06;4.00;99.90
8914;DHT22;4492;48.736;9.092;2023-02-03T04:22:32;4.00;99.90
8914;DHT22;4492;48.736;9.092;2023-02-03T04:24:57;4.00;99.90
8914;DHT22;4492;48.736;9.092;2023-02-03T04:27:26;4.00;99.90
8914;DHT22;4492;48.736;9.092;2023-02-03T04:29:51;4.00;99.90
8914;DHT22;4492;48.736;9.092;2023-02-03T04:32:17;4.00;99.90
8914;DHT22;4492;48.736;9.092;2023-02-03T04:34:43;4.00;99.90
8914;DHT22;4492;48.736;9.092;2023-02-03T04:37:08;3.90;99.90
8914;DHT22;4492;48.736;9.092;2023-02-03T04:39:34;3.90;99.90
8914;DHT22;4492;48.736;9.092;2023-02-03T04:41:59;3.90;99.90
8914;DHT22;4492;48.736;9.092;2023-02-03T04:44:25;3.90;99.90
8914;DHT22;4492;48.736;9.092;2023-02-03T04:46:50;3.90;99.90
8914;DHT22;4492;48.736;9.092;2023-02-03T04:49:16;3.80;99.90
8914;DHT22;4492;48.736;9.092;2023-02-03T04:51:42;3.80;99.90
8914;DHT22;4492;48.736;9.092;2023-02-03T04:54:09;3.90;99.90
8914;DHT22;4492;48.736;9.092;2023-02-03T04:56:35;3.90;99.90
8914;DHT22;4492;48.736;9.092;2023-02-03T04:59:01;3.90;99.90
8914;DHT22;4492;48.736;9.092;2023-02-03T05:01:27;3.80;99.90
8914;DHT22;4492;48.736;9.092;2023-02-03T05:03:52;3.90;99.90
8914;DHT22;4492;48.736;9.092;2023-02-03T05:06:22;3.90;99.90
8914;DHT22;4492;48.736;9.092;2023-02-03T05:08:48;3.80;99.90
8914;DHT22;4492;48.736;9.092;2023-02-03T05:11:14;3.80;99.90
8914;DHT22;4492;48.736;9.092;2023-02-03T05:13:39;3.80;99.90
8914;DHT22;4492;48.736;9.092;2023-02-03T05:16:05;3.80;99.90
8914;DHT22;4492;48.736;9.092;2023-02-03T05:18:31;3.80;99.90
8914;DHT22;4492;48.736;9.092;2023-02-03T05:20:56;3.80;99.90
8914;DHT22;4492;48.736;9.092;2023-02-03T05:23:22;3.80;99.90
8914;DHT22;4492;48.736;9.092;2023-02-03T05:25:48;3.90;99.90
8914;DHT22;4492;48.736;9.092;2023-02-03T05:28:13;3.90;99.90
8914;DHT22;4492;48.736;9.092;2023-02-03T05:30:39;3.90;99.90
8914;DHT22;4492;48.736;9.092;2023-02-03T05:33:05;3.90;99.90
8914;DHT22;4492;48.736;9.092;2023-02-03T05:35:31;3.90;99.90
8914;DHT22;4492;48.736;9.092;2023-02-03T05:37:56;3.90;99.90
8914;DHT22;4492;48.736;9.092;2023-02-03T05:40:23;3.90;99.90
8914;DHT22;4492;48.736;9.092;2023-02-03T05:43:08;3.90;99.90
8914;DHT22;4492;48.736;9.092;2023-02-03T05:45:34;3.90;99.90
8914;DHT22;4492;48.736;9.092;2023-02-03T05:47:59;3.90;99.90
8914;DHT22;4492;48.736;9.092;2023-02-03T05:50:30;3.90;99.90
8914;DHT22;4492;48.736;9.092;2023-02-03T05:52:59;3.90;99.90
8914;DHT22;4492;48.736;9.092;2023-02-03T05:55:26;3.90;99.90
8914;DHT22;4492;48.736;9.092;2023-02-03T05:57:52;3.90;99.90
8914;DHT22;4492;48.736;9.092;2023-02-03T06:00:19;3.90;99.90
8914;DHT22;4492;48.736;9.092;2023-02-03T06:02:53;3.80;99.90
8914;DHT22;4492;48.736;9.092;2023-02-03T06:05:20;3.80;99.90
8914;DHT22;4492;48.736;9.092;2023-02-03T06:07:46;3.80;99.90
8914;DHT22;4492;48.736;9.092;2023-02-03T06:10:11;3.80;99.90
8914;DHT22;4492;48.736;9.092;2023-02-03T06:12:38;3.80;99.90
8914;DHT22;4492;48.736;9.092;2023-02-03T06:15:04;3.80;99.90
8914;DHT22;4492;48.736;9.092;2023-02-03T06:17:30;3.80;99.90
8914;DHT22;4492;48.736;9.092;2023-02-03T06:19:56;3.80;99.90
8914;DHT22;4492;48.736;9.092;2023-02-03T06:22:21;3.80;99.90
8914;DHT22;4492;48.736;9.092;2023-02-03T06:24:47;3.80;99.90
8914;DHT22;4492;48.736;9.092;2023-02-03T06:27:13;3.80;99.90
8914;DHT22;4492;48.736;9.092;2023-02-03T06:29:39;3.80;99.90
8914;DHT22;4492;48.736;9.092;2023-02-03T06:32:05;3.80;99.90
8914;DHT22;4492;48.736;9.092;2023-02-03T06:34:31;3.80;99.90
8914;DHT22;4492;48.736;9.092;2023-02-03T06:36:57;3.80;99.90
8914;DHT22;4492;48.736;9.092;2023-02-03T06:39:22;3.80;99.90
8914;DHT22;4492;48.736;9.092;2023-02-03T06:41:48;3.80;99.90
8914;DHT22;4492;48.736;9.092;2023-02-03T06:44:15;3.80;99.90
8914;DHT22;4492;48.736;9.092;2023-02-03T06:46:41;3.80;99.90
8914;DHT22;4492;48.736;9.092;2023-02-03T06:49:06;3.80;99.90
8914;DHT22;4492;48.736;9.092;2023-02-03T06:51:32;3.80;99.90
8914;DHT22;4492;48.736;9.092;2023-02-03T06:53:57;3.80;99.90
8914;DHT22;4492;48.736;9.092;2023-02-03T06:56:23;3.80;99.90
8914;DHT22;4492;48.736;9.092;2023-02-03T06:58:49;3.80;99.90
8914;DHT22;4492;48.736;9.092;2023-02-03T07:01:14;3.90;99.90
8914;DHT22;4492;48.736;9.092;2023-02-03T07:03:40;3.80;99.90
8914;DHT22;4492;48.736;9.092;2023-02-03T07:06:05;3.90;99.90
8914;DHT22;4492;48.736;9.092;2023-02-03T07:08:31;3.80;99.90
8914;DHT22;4492;48.736;9.092;2023-02-03T07:10:57;3.80;99.90
8914;DHT22;4492;48.736;9.092;2023-02-03T07:13:22;3.80;99.90
8914;DHT22;4492;48.736;9.092;2023-02-03T07:15:48;3.80;99.90
8914;DHT22;4492;48.736;9.092;2023-02-03T07:18:13;3.90;99.90
8914;DHT22;4492;48.736;9.092;2023-02-03T07:20:39;3.90;99.90
8914;DHT22;4492;48.736;9.092;2023-02-03T07:23:05;3.90;99.90
8914;DHT22;4492;48.736;9.092;2023-02-03T07:25:31;3.90;99.90
8914;DHT22;4492;48.736;9.092;2023-02-03T07:27:56;3.90;99.90
8914;DHT22;4492;48.736;9.092;2023-02-03T07:30:22;3.90;99.90
8914;DHT22;4492;48.736;9.092;2023-02-03T07:32:51;3.90;99.90
8914;DHT22;4492;48.736;9.092;2023-02-03T07:35:18;3.90;99.90
8914;DHT22;4492;48.736;9.092;2023-02-03T07:37:44;3.90;99.90
8914;DHT22;4492;48.736;9.092;2023-02-03T07:40:10;3.90;99.90
8914;DHT22;4492;48.736;9.092;2023-02-03T07:42:41;3.90;99.90
8914;DHT22;4492;48.736;9.092;2023-02-03T07:45:08;4.00;99.90
8914;DHT22;4492;48.736;9.092;2023-02-03T07:47:34;4.00;99.90
8914;DHT22;4492;48.736;9.092;2023-02-03T07:49:59;3.90;99.90
8914;DHT22;4492;48.736;9.092;2023-02-03T07:52:25;3.90;99.90
8914;DHT22;4492;48.736;9.092;2023-02-03T07:54:51;3.90;99.90
8914;DHT22;4492;48.736;9.092;2023-02-03T07:57:16;3.90;99.90
8914;DHT22;4492;48.736;9.092;2023-02-03T07:59:42;3.90;99.90
8914;DHT22;4492;48.736;9.092;2023-02-03T08:02:09;3.90;99.90
8914;DHT22;4492;48.736;9.092;2023-02-03T08:04:36;4.00;99.90
8914;DHT22;4492;48.736;9.092;2023-02-03T08:07:02;4.00;99.90
8914;DHT22;4492;48.736;9.092;2023-02-03T08:09:27;4.00;99.90
8914;DHT22;4492;48.736;9.092;2023-02-03T08:11:53;4.00;99.90
8914;DHT22;4492;48.736;9.092;2023-02-03T08:14:18;4.00;99.90
8914;DHT22;4492;48.736;9.092;2023-02-03T08:16:44;3.90;99.90
8914;DHT22;4492;48.736;9.092;2023-02-03T08:19:10;3.90;99.90
8914;DHT22;4492;48.736;9.092;2023-02-03T08:21:36;4.00;99.90
8914;DHT22;4492;48.736;9.092;2023-02-03T08:24:01;4.00;99.90
8914;DHT22;4492;48.736;9.092;2023-02-03T08:26:27;4.10;99.90
8914;DHT22;4492;48.736;9.092;2023-02-03T08:28:52;4.10;99.90
8914;DHT22;4492;48.736;9.092;2023-02-03T08:31:18;4.10;99.90
8914;DHT22;4492;48.736;9.092;2023-02-03T08:33:44;4.10;99.90
8914;DHT22;4492;48.736;9.092;2023-02-03T08:36:10;4.10;99.90
8914;DHT22;4492;48.736;9.092;2023-02-03T08:38:36;4.00;99.90
8914;DHT22;4492;48.736;9.092;2023-02-03T08:41:08;4.10;99.90
8914;DHT22;4492;48.736;9.092;2023-02-03T08:43:33;4.10;99.90
8914;DHT22;4492;48.736;9.092;2023-02-03T08:46:04;4.10;99.90
8914;DHT22;4492;48.736;9.092;2023-02-03T08:48:29;4.10;99.90
8914;DHT22;4492;48.736;9.092;2023-02-03T08:50:55;4.10;99.90
8914;DHT22;4492;48.736;9.092;2023-02-03T08:53:20;4.20;99.90
8914;DHT22;4492;48.736;9.092;2023-02-03T08:55:47;4.40;99.90
8914;DHT22;4492;48.736;9.092;2023-02-03T08:58:13;4.40;99.90
8914;DHT22;4492;48.736;9.092;2023-02-03T09:00:39;4.50;99.90
8914;DHT22;4492;48.736;9.092;2023-02-03T09:03:04;4.50;99.90
8914;DHT22;4492;48.736;9.092;2023-02-03T09:05:31;4.40;99.90
8914;DHT22;4492;48.736;9.092;2023-02-03T09:07:56;4.40;99.90
8914;DHT22;4492;48.736;9.092;2023-02-03T09:10:22;4.40;99.90
8914;DHT22;4492;48.736;9.092;2023-02-03T09:12:47;4.50;99.90
8914;DHT22;4492;48.736;9.092;2023-02-03T09:15:13;4.50;99.90
8914;DHT22;4492;48.736;9.092;2023-02-03T09:17:39;4.60;99.90
8914;DHT22;4492;48.736;9.092;2023-02-03T09:20:05;4.60;99.90
8914;DHT22;4492;48.736;9.092;2023-02-03T09:22:30;4.70;99.90
8914;DHT22;4492;48.736;9.092;2023-02-03T09:24:57;4.80;99.90
8914;DHT22;4492;48.736;9.092;2023-02-03T09:27:22;4.90;99.90
8914;DHT22;4492;48.736;9.092;2023-02-03T09:29:48;5.00;99.90
8914;DHT22;4492;48.736;9.092;2023-02-03T09:32:13;5.20;99.90
8914;DHT22;4492;48.736;9.092;2023-02-03T09:34:39;5.30;99.90
8914;DHT22;4492;48.736;9.092;2023-02-03T09:37:06;5.50;99.90
8914;DHT22;4492;48.736;9.092;2023-02-03T09:39:31;5.50;99.90
8914;DHT22;4492;48.736;9.092;2023-02-03T09:45:31;5.50;99.90
8914;DHT22;4492;48.736;9.092;2023-02-03T09:48:15;5.50;99.90
8914;DHT22;4492;48.736;9.092;2023-02-03T09:50:43;5.50;99.90
8914;DHT22;4492;48.736;9.092;2023-02-03T09:53:38;5.60;99.90
8914;DHT22;4492;48.736;9.092;2023-02-03T09:56:21;5.60;99.90
8914;DHT22;4492;48.736;9.092;2023-02-03T09:58:49;5.60;99.90
8914;DHT22;4492;48.736;9.092;2023-02-03T10:01:15;5.70;99.90
8914;DHT22;4492;48.736;9.092;2023-02-03T10:04:03;5.60;99.90
8914;DHT22;4492;48.736;9.092;2023-02-03T10:06:35;5.60;99.90
8914;DHT22;4492;48.736;9.092;2023-02-03T10:09:35;5.60;99.90
8914;DHT22;4492;48.736;9.092;2023-02-03T10:17:40;5.90;99.90
8914;DHT22;4492;48.736;9.092;2023-02-03T10:20:17;5.90;99.90
8914;DHT22;4492;48.736;9.092;2023-02-03T10:22:56;6.00;99.90
8914;DHT22;4492;48.736;9.092;2023-02-03T10:25:39;6.00;99.90
8914;DHT22;4492;48.736;9.092;2023-02-03T10:28:16;6.10;99.90
8914;DHT22;4492;48.736;9.092;2023-02-03T10:30:46;6.10;99.90
8914;DHT22;4492;48.736;9.092;2023-02-03T10:33:15;6.10;99.90
8914;DHT22;4492;48.736;9.092;2023-02-03T10:35:52;6.10;99.90
8914;DHT22;4492;48.736;9.092;2023-02-03T10:38:30;6.10;99.90
8914;DHT22;4492;48.736;9.092;2023-02-03T10:40:59;6.10;99.90
8914;DHT22;4492;48.736;9.092;2023-02-03T10:43:27;6.10;99.90
8914;DHT22;4492;48.736;9.092;2023-02-03T10:46:17;6.10;99.90
8914;DHT22;4492;48.736;9.092;2023-02-03T10:48:42;6.10;99.90
8914;DHT22;4492;48.736;9.092;2023-02-03T10:51:17;6.30;99.90
8914;DHT22;4492;48.736;9.092;2023-02-03T10:53:43;6.30;99.90
8914;DHT22;4492;48.736;9.092;2023-02-03T10:56:15;6.30;99.90
8914;DHT22;4492;48.736;9.092;2023-02-03T10:58:49;6.30;99.90
8914;DHT22;4492;48.736;9.092;2023-02-03T11:01:18;6.30;99.90
8914;DHT22;4492;48.736;9.092;2023-02-03T11:03:58;6.50;99.90
8914;DHT22;4492;48.736;9.092;2023-02-03T11:06:25;6.70;99.90
8914;DHT22;4492;48.736;9.092;2023-02-03T11:08:51;6.70;99.90
8914;DHT22;4492;48.736;9.092;2023-02-03T11:11:21;6.90;99.90
8914;DHT22;4492;48.736;9.092;2023-02-03T11:13:55;6.90;99.90
8914;DHT22;4492;48.736;9.092;2023-02-03T11:16:35;7.00;99.90
8914;DHT22;4492;48.736;9.092;2023-02-03T11:19:15;6.90;99.90
8914;DHT22;4492;48.736;9.092;2023-02-03T11:21:45;7.00;99.90
8914;DHT22;4492;48.736;9.092;2023-02-03T11:24:30;6.90;99.90
8914;DHT22;4492;48.736;9.092;2023-02-03T11:27:03;6.90;99.90
8914;DHT22;4492;48.736;9.092;2023-02-03T11:29:33;6.90;99.90
8914;DHT22;4492;48.736;9.092;2023-02-03T11:32:19;7.00;99.90
8914;DHT22;4492;48.736;9.092;2023-02-03T11:35:00;6.90;99.90
8914;DHT22;4492;48.736;9.092;2023-02-03T11:37:40;6.90;99.90
8914;DHT22;4492;48.736;9.092;2023-02-03T11:42:36;6.80;99.90
8914;DHT22;4492;48.736;9.092;2023-02-03T11:58:19;6.70;99.90
8914;DHT22;4492;48.736;9.092;2023-02-03T12:01:27;6.70;99.90
8914;DHT22;4492;48.736;9.092;2023-02-03T12:13:17;6.90;99.90
8914;DHT22;4492;48.736;9.092;2023-02-03T12:18:40;6.80;99.90
8914;DHT22;4492;48.736;9.092;2023-02-03T12:21:31;6.90;99.90
8914;DHT22;4492;48.736;9.092;2023-02-03T12:24:14;6.90;99.90
8914;DHT22;4492;48.736;9.092;2023-02-03T12:26:46;7.00;99.90
8914;DHT22;4492;48.736;9.092;2023-02-03T12:29:15;7.10;99.90
8914;DHT22;4492;48.736;9.092;2023-02-03T12:31:59;7.00;99.90
8914;DHT22;4492;48.736;9.092;2023-02-03T12:34:31;7.00;99.90
8914;DHT22;4492;48.736;9.092;2023-02-03T12:37:11;7.00;99.90
8914;DHT22;4492;48.736;9.092;2023-02-03T12:42:25;6.90;99.90
8914;DHT22;4492;48.736;9.092;2023-02-03T12:45:08;6.80;99.90
8914;DHT22;4492;48.736;9.092;2023-02-03T12:50:18;6.70;99.90
8914;DHT22;4492;48.736;9.092;2023-02-03T12:52:59;6.70;99.90
8914;DHT22;4492;48.736;9.092;2023-02-03T12:55:36;6.60;99.90
8914;DHT22;4492;48.736;9.092;2023-02-03T12:58:17;6.60;99.90
8914;DHT22;4492;48.736;9.092;2023-02-03T13:00:50;6.60;99.90
8914;DHT22;4492;48.736;9.092;2023-02-03T13:06:15;6.60;99.90
8914;DHT22;4492;48.736;9.092;2023-02-03T13:11:37;6.70;99.90
8914;DHT22;4492;48.736;9.092;2023-02-03T13:14:27;6.70;99.90
8914;DHT22;4492;48.736;9.092;2023-02-03T13:16:57;6.90;99.90
8914;DHT22;4492;48.736;9.092;2023-02-03T13:19:26;7.00;99.90
8914;DHT22;4492;48.736;9.092;2023-02-03T13:21:54;7.10;99.90
8914;DHT22;4492;48.736;9.092;2023-02-03T13:24:22;7.10;99.90
8914;DHT22;4492;48.736;9.092;2023-02-03T13:30:02;7.10;99.90
8914;DHT22;4492;48.736;9.092;2023-02-03T13:32:55;7.10;99.90
8914;DHT22;4492;48.736;9.092;2023-02-03T13:35:44;7.10;99.90
8914;DHT22;4492;48.736;9.092;2023-02-03T13:41:29;7.00;99.90
8914;DHT22;4492;48.736;9.092;2023-02-03T13:43:59;6.90;99.90
8914;DHT22;4492;48.736;9.092;2023-02-03T13:46:28;6.90;99.90
8914;DHT22;4492;48.736;9.092;2023-02-03T13:48:57;7.00;99.90
8914;DHT22;4492;48.736;9.092;2023-02-03T13:51:26;6.90;99.90
8914;DHT22;4492;48.736;9.092;2023-02-03T13:54:04;6.90;99.90
8914;DHT22;4492;48.736;9.092;2023-02-03T13:56:30;7.00;99.90
8914;DHT22;4492;48.736;9.092;2023-02-03T14:01:40;7.00;99.90
8914;DHT22;4492;48.736;9.092;2023-02-03T14:04:49;7.00;99.90
8914;DHT22;4492;48.736;9.092;2023-02-03T14:06:56;7.00;99.90
8914;DHT22;4492;48.736;9.092;2023-02-03T14:17:53;6.80;99.90
8914;DHT22;4492;48.736;9.092;2023-02-03T14:19:54;6.70;99.90
8914;DHT22;4492;48.736;9.092;2023-02-03T14:22:20;6.60;99.90
8914;DHT22;4492;48.736;9.092;2023-02-03T14:24:47;6.60;99.90
8914;DHT22;4492;48.736;9.092;2023-02-03T14:27:19;6.50;99.90
8914;DHT22;4492;48.736;9.092;2023-02-03T14:30:11;6.60;99.90
8914;DHT22;4492;48.736;9.092;2023-02-03T14:32:53;6.50;99.90
8914;DHT22;4492;48.736;9.092;2023-02-03T14:35:28;6.50;99.90
8914;DHT22;4492;48.736;9.092;2023-02-03T14:38:03;6.60;99.90
8914;DHT22;4492;48.736;9.092;2023-02-03T14:40:52;6.50;99.90
8914;DHT22;4492;48.736;9.092;2023-02-03T14:43:40;6.40;99.90
8914;DHT22;4492;48.736;9.092;2023-02-03T14:52:21;6.30;99.90
8914;DHT22;4492;48.736;9.092;2023-02-03T14:55:00;6.30;99.90
8914;DHT22;4492;48.736;9.092;2023-02-03T14:57:46;6.30;99.90
8914;DHT22;4492;48.736;9.092;2023-02-03T15:05:41;6.10;99.90
8914;DHT22;4492;48.736;9.092;2023-02-03T15:08:34;6.10;99.90
8914;DHT22;4492;48.736;9.092;2023-02-03T15:11:23;6.10;99.90
8914;DHT22;4492;48.736;9.092;2023-02-03T15:13:50;6.30;99.90
8914;DHT22;4492;48.736;9.092;2023-02-03T15:16:19;6.20;99.90
8914;DHT22;4492;48.736;9.092;2023-02-03T15:18:51;6.10;99.90
8914;DHT22;4492;48.736;9.092;2023-02-03T15:21:18;6.10;99.90
8914;DHT22;4492;48.736;9.092;2023-02-03T15:23:46;6.40;99.90
8914;DHT22;4492;48.736;9.092;2023-02-03T15:26:13;6.30;99.90
8914;DHT22;4492;48.736;9.092;2023-02-03T15:28:39;6.10;99.90
8914;DHT22;4492;48.736;9.092;2023-02-03T15:33:34;5.90;99.90
8914;DHT22;4492;48.736;9.092;2023-02-03T15:36:25;5.80;99.90
8914;DHT22;4492;48.736;9.092;2023-02-03T15:39:06;5.80;99.90
8914;DHT22;4492;48.736;9.092;2023-02-03T15:41:35;5.80;99.90
8914;DHT22;4492;48.736;9.092;2023-02-03T15:44:05;5.70;99.90
8914;DHT22;4492;48.736;9.092;2023-02-03T15:46:39;5.70;99.90
8914;DHT22;4492;48.736;9.092;2023-02-03T15:49:07;5.60;99.90
8914;DHT22;4492;48.736;9.092;2023-02-03T15:51:43;5.60;99.90
8914;DHT22;4492;48.736;9.092;2023-02-03T15:54:18;5.60;99.90
8914;DHT22;4492;48.736;9.092;2023-02-03T15:56:49;5.60;99.90
8914;DHT22;4492;48.736;9.092;2023-02-03T15:59:35;5.60;99.90
8914;DHT22;4492;48.736;9.092;2023-02-03T16:02:06;5.60;99.90
8914;DHT22;4492;48.736;9.092;2023-02-03T16:04:36;5.50;99.90
8914;DHT22;4492;48.736;9.092;2023-02-03T16:07:02;5.50;99.90
8914;DHT22;4492;48.736;9.092;2023-02-03T16:09:31;5.50;99.90
8914;DHT22;4492;48.736;9.092;2023-02-03T16:12:21;5.50;99.90
8914;DHT22;4492;48.736;9.092;2023-02-03T16:14:47;5.50;99.90
8914;DHT22;4492;48.736;9.092;2023-02-03T16:17:37;5.40;99.90
8914;DHT22;4492;48.736;9.092;2023-02-03T16:22:40;5.40;99.90
8914;DHT22;4492;48.736;9.092;2023-02-03T16:25:16;5.50;99.90
8914;DHT22;4492;48.736;9.092;2023-02-03T16:27:44;5.50;99.90
8914;DHT22;4492;48.736;9.092;2023-02-03T16:35:57;5.50;99.90
8914;DHT22;4492;48.736;9.092;2023-02-03T16:41:30;5.60;99.90
8914;DHT22;4492;48.736;9.092;2023-02-03T16:44:15;5.50;99.90
8914;DHT22;4492;48.736;9.092;2023-02-03T16:46:59;5.50;99.90
8914;DHT22;4492;48.736;9.092;2023-02-03T16:49:43;5.50;99.90
8914;DHT22;4492;48.736;9.092;2023-02-03T16:52:27;5.60;99.90
8914;DHT22;4492;48.736;9.092;2023-02-03T16:54:53;5.60;99.90
8914;DHT22;4492;48.736;9.092;2023-02-03T16:57:19;5.60;99.90
8914;DHT22;4492;48.736;9.092;2023-02-03T16:59:44;5.60;99.90
8914;DHT22;4492;48.736;9.092;2023-02-03T17:02:10;5.70;99.90
8914;DHT22;4492;48.736;9.092;2023-02-03T17:04:35;5.80;99.90
8914;DHT22;4492;48.736;9.092;2023-02-03T17:07:01;5.80;99.90
8914;DHT22;4492;48.736;9.092;2023-02-03T17:09:29;5.70;99.90
8914;DHT22;4492;48.736;9.092;2023-02-03T17:12:02;5.70;99.90
8914;DHT22;4492;48.736;9.092;2023-02-03T17:14:28;5.70;99.90
8914;DHT22;4492;48.736;9.092;2023-02-03T17:16:54;5.70;99.90
8914;DHT22;4492;48.736;9.092;2023-02-03T17:19:20;5.70;99.90
8914;DHT22;4492;48.736;9.092;2023-02-03T17:21:45;5.70;99.90
8914;DHT22;4492;48.736;9.092;2023-02-03T17:24:12;5.80;99.90
8914;DHT22;4492;48.736;9.092;2023-02-03T17:26:38;5.70;99.90
8914;DHT22;4492;48.736;9.092;2023-02-03T17:29:04;5.70;99.90
8914;DHT22;4492;48.736;9.092;2023-02-03T17:31:30;5.80;99.90
8914;DHT22;4492;48.736;9.092;2023-02-03T17:33:56;5.80;99.90
8914;DHT22;4492;48.736;9.092;2023-02-03T17:36:22;5.80;99.90
8914;DHT22;4492;48.736;9.092;2023-02-03T17:38:51;5.80;99.90
8914;DHT22;4492;48.736;9.092;2023-02-03T17:41:20;5.80;99.90
8914;DHT22;4492;48.736;9.092;2023-02-03T17:43:47;5.70;99.90
8914;DHT22;4492;48.736;9.092;2023-02-03T17:46:15;5.80;99.90
8914;DHT22;4492;48.736;9.092;2023-02-03T17:48:40;5.80;99.90
8914;DHT22;4492;48.736;9.092;2023-02-03T17:51:12;5.90;99.90
8914;DHT22;4492;48.736;9.092;2023-02-03T17:53:39;5.80;99.90
8914;DHT22;4492;48.736;9.092;2023-02-03T17:56:10;5.80;99.90
8914;DHT22;4492;48.736;9.092;2023-02-03T17:58:36;5.80;99.90
8914;DHT22;4492;48.736;9.092;2023-02-03T18:01:14;5.80;99.90
8914;DHT22;4492;48.736;9.092;2023-02-03T18:03:53;5.80;99.90
8914;DHT22;4492;48.736;9.092;2023-02-03T18:06:20;5.90;99.90
8914;DHT22;4492;48.736;9.092;2023-02-03T18:08:47;5.90;99.90
8914;DHT22;4492;48.736;9.092;2023-02-03T18:11:13;5.90;99.90
8914;DHT22;4492;48.736;9.092;2023-02-03T18:13:42;5.90;99.90
8914;DHT22;4492;48.736;9.092;2023-02-03T18:16:12;5.90;99.90
8914;DHT22;4492;48.736;9.092;2023-02-03T18:18:42;5.90;99.90
8914;DHT22;4492;48.736;9.092;2023-02-03T18:21:10;5.90;99.90
8914;DHT22;4492;48.736;9.092;2023-02-03T18:23:37;5.90;99.90
8914;DHT22;4492;48.736;9.092;2023-02-03T18:26:04;6.00;99.90
8914;DHT22;4492;48.736;9.092;2023-02-03T18:28:30;5.90;99.90
8914;DHT22;4492;48.736;9.092;2023-02-03T18:31:04;5.90;99.90
8914;DHT22;4492;48.736;9.092;2023-02-03T18:33:30;5.90;99.90